createdAt,value
2019-02-16T00:00:39.065Z,5.10
2019-02-16T00:03:07.402Z,5.10
2019-02-16T00:05:35.710Z,5.10
2019-02-16T00:08:04.171Z,5.00
2019-02-16T00:10:32.470Z,4.90
2019-02-16T00:13:00.824Z,4.90
2019-02-16T00:15:29.439Z,4.90
2019-02-16T00:17:57.886Z,5.00
2019-02-16T00:20:26.222Z,5.00
2019-02-16T00:22:54.756Z,5.10
2019-02-16T00:25:23.486Z,5.10
2019-02-16T00:27:51.950Z,5.10
2019-02-16T00:30:20.384Z,5.20
2019-02-16T00:32:48.703Z,5.20
2019-02-16T00:35:17.094Z,5.20
2019-02-16T00:37:45.759Z,5.10
2019-02-16T00:40:14.218Z,5.10
2019-02-16T00:42:42.708Z,5.10
2019-02-16T00:45:11.327Z,5.10
2019-02-16T00:47:39.678Z,5.10
2019-02-16T00:50:08.077Z,5.20
2019-02-16T00:52:36.622Z,5.10
2019-02-16T00:55:05.067Z,5.10
2019-02-16T00:57:33.442Z,5.10
2019-02-16T01:00:02.126Z,5.00
2019-02-16T01:02:30.473Z,5.00
2019-02-16T01:04:58.905Z,4.90
2019-02-16T01:07:27.284Z,4.90
2019-02-16T01:09:55.593Z,4.90
2019-02-16T01:12:24.138Z,5.00
2019-02-16T01:14:52.633Z,5.10
2019-02-16T01:17:20.935Z,5.20
2019-02-16T01:19:49.504Z,5.30
2019-02-16T01:22:17.979Z,5.30
2019-02-16T01:24:46.309Z,5.20
2019-02-16T01:27:14.978Z,5.30
2019-02-16T01:29:43.622Z,5.20
2019-02-16T01:32:11.940Z,5.10
2019-02-16T01:34:40.417Z,5.10
2019-02-16T01:37:08.878Z,5.00
2019-02-16T01:39:37.462Z,5.00
2019-02-16T01:42:05.935Z,5.10
2019-02-16T01:44:34.581Z,5.10
2019-02-16T01:47:02.940Z,5.20
2019-02-16T01:49:31.260Z,5.20
2019-02-16T01:51:59.825Z,5.20
2019-02-16T01:54:28.130Z,5.30
2019-02-16T01:56:56.507Z,5.30
2019-02-16T01:59:25.213Z,5.20
2019-02-16T02:01:53.920Z,5.20
2019-02-16T02:04:22.251Z,5.20
2019-02-16T02:06:50.657Z,5.20
2019-02-16T02:09:19.096Z,5.30
2019-02-16T02:11:47.456Z,5.30
2019-02-16T02:14:15.959Z,5.20
2019-02-16T02:16:44.293Z,5.30
2019-02-16T02:19:12.732Z,5.30
2019-02-16T02:21:41.622Z,5.30
2019-02-16T02:24:09.753Z,5.30
2019-02-16T02:26:38.187Z,5.20
2019-02-16T02:29:06.857Z,5.10
2019-02-16T02:31:37.450Z,5.10
2019-02-16T02:34:03.673Z,5.10
2019-02-16T02:36:32.324Z,5.10
2019-02-16T02:39:00.694Z,5.00
2019-02-16T02:41:29.070Z,4.90
2019-02-16T02:43:57.515Z,4.90
2019-02-16T02:46:25.874Z,4.80
2019-02-16T02:48:54.284Z,4.90
2019-02-16T02:51:22.687Z,4.80
2019-02-16T02:53:51.174Z,4.80
2019-02-16T02:56:19.582Z,4.80
2019-02-16T02:58:48.210Z,4.90
2019-02-16T03:01:16.419Z,4.70
2019-02-16T03:03:44.731Z,4.70
2019-02-16T03:06:13.317Z,4.70
2019-02-16T03:08:41.644Z,4.70
2019-02-16T03:11:09.957Z,4.60
2019-02-16T03:13:38.494Z,4.60
2019-02-16T03:16:06.941Z,4.70
2019-02-16T03:18:35.266Z,4.70
2019-02-16T03:21:03.891Z,4.70
2019-02-16T03:23:32.414Z,4.70
2019-02-16T03:26:11.745Z,4.70
2019-02-16T03:28:47.603Z,4.60
2019-02-16T03:31:48.388Z,4.70
2019-02-16T03:34:21.112Z,4.70
2019-02-16T03:38:09.324Z,4.70
2019-02-16T03:40:37.642Z,4.60
2019-02-16T03:43:05.943Z,4.70
2019-02-16T03:45:34.595Z,4.60
2019-02-16T03:48:02.961Z,4.60
2019-02-16T03:50:31.278Z,4.70
2019-02-16T03:52:59.739Z,4.70
2019-02-16T03:55:28.056Z,4.70
2019-02-16T03:57:56.390Z,4.70
2019-02-16T04:00:25.171Z,4.60
2019-02-16T04:02:53.499Z,4.50
2019-02-16T04:05:21.880Z,4.50
2019-02-16T04:07:50.349Z,4.60
2019-02-16T04:10:18.662Z,4.60
2019-02-16T04:12:47.266Z,4.50
2019-02-16T04:15:15.925Z,4.50
2019-02-16T04:17:44.231Z,4.50
2019-02-16T04:20:12.612Z,4.50
2019-02-16T04:22:41.494Z,4.50
2019-02-16T04:25:09.894Z,4.50
2019-02-16T04:27:38.549Z,4.50
2019-02-16T04:30:08.019Z,4.50
2019-02-16T04:32:36.332Z,4.50
2019-02-16T04:35:05.200Z,4.50
2019-02-16T04:37:34.212Z,4.50
2019-02-16T04:40:02.585Z,4.40
2019-02-16T04:42:30.982Z,4.40
2019-02-16T04:44:59.805Z,4.40
2019-02-16T04:47:28.173Z,4.30
2019-02-16T04:49:56.496Z,4.40
2019-02-16T04:52:33.973Z,4.40
2019-02-16T04:54:53.340Z,4.40
2019-02-16T04:57:21.721Z,4.30
2019-02-16T04:59:50.124Z,4.20
2019-02-16T05:02:18.608Z,4.20
2019-02-16T05:04:47.084Z,4.20
2019-02-16T05:07:15.633Z,4.10
2019-02-16T05:09:43.946Z,4.10
2019-02-16T05:12:12.305Z,4.10
2019-02-16T05:14:40.727Z,4.10
2019-02-16T05:17:09.061Z,4.10
2019-02-16T05:19:37.348Z,4.20
2019-02-16T05:22:06.087Z,4.20
2019-02-16T05:24:34.646Z,4.10
2019-02-16T05:27:03.055Z,4.10
2019-02-16T05:29:31.840Z,4.00
2019-02-16T05:32:00.204Z,4.00
2019-02-16T05:34:28.606Z,4.10
2019-02-16T05:36:57.460Z,4.10
2019-02-16T05:39:25.735Z,4.00
2019-02-16T05:41:54.307Z,3.90
2019-02-16T05:44:23.066Z,3.90
2019-02-16T05:46:51.492Z,3.90
2019-02-16T05:49:19.877Z,3.80
2019-02-16T05:51:48.354Z,3.80
2019-02-16T05:54:16.727Z,3.90
2019-02-16T05:56:45.015Z,3.90
2019-02-16T05:59:14.514Z,3.80
2019-02-16T06:01:42.872Z,3.90
2019-02-16T06:04:11.421Z,3.90
2019-02-16T06:06:39.838Z,3.80
2019-02-16T06:09:08.213Z,3.90
2019-02-16T06:11:36.554Z,3.90
2019-02-16T06:14:05.244Z,3.90
2019-02-16T06:16:33.592Z,3.90
2019-02-16T06:19:01.898Z,4.00
2019-02-16T06:21:30.535Z,4.00
2019-02-16T06:23:59.073Z,4.10
2019-02-16T06:26:27.446Z,4.10
2019-02-16T06:28:55.857Z,4.10
2019-02-16T06:31:24.187Z,4.00
2019-02-16T06:33:52.514Z,4.10
2019-02-16T06:36:28.318Z,4.10
2019-02-16T06:38:57.004Z,4.10
2019-02-16T06:41:25.327Z,4.10
2019-02-16T06:43:53.755Z,4.10
2019-02-16T06:46:22.142Z,4.10
2019-02-16T06:48:50.793Z,4.10
2019-02-16T06:51:19.484Z,4.20
2019-02-16T06:53:47.856Z,4.20
2019-02-16T06:56:20.669Z,4.10
2019-02-16T06:58:48.995Z,4.10
2019-02-16T07:01:17.317Z,4.10
2019-02-16T07:03:46.307Z,4.10
2019-02-16T07:06:14.664Z,4.00
2019-02-16T07:08:44.235Z,4.00
2019-02-16T07:11:11.810Z,4.10
2019-02-16T07:13:40.086Z,4.30
2019-02-16T07:16:14.338Z,4.30
2019-02-16T07:18:48.128Z,4.30
2019-02-16T07:21:16.929Z,4.30
2019-02-16T07:23:45.254Z,4.40
2019-02-16T07:26:13.585Z,4.40
2019-02-16T07:28:42.677Z,4.30
2019-02-16T07:31:11.876Z,4.30
2019-02-16T07:33:43.293Z,4.30
2019-02-16T07:36:11.776Z,4.40
2019-02-16T07:38:40.501Z,4.40
2019-02-16T07:41:09.632Z,4.50
2019-02-16T07:44:14.318Z,4.50
2019-02-16T07:46:49.938Z,4.60
2019-02-16T07:49:23.559Z,4.50
2019-02-16T07:52:00.131Z,4.40
2019-02-16T07:54:49.870Z,4.40
2019-02-16T07:57:22.688Z,4.50
2019-02-16T08:00:13.015Z,4.60
2019-02-16T08:02:59.495Z,4.60
2019-02-16T08:05:33.183Z,4.60
2019-02-16T08:08:08.268Z,4.70
2019-02-16T08:10:44.835Z,4.70
2019-02-16T08:13:18.501Z,4.80
2019-02-16T08:15:54.140Z,4.90
2019-02-16T08:19:33.000Z,4.90
2019-02-16T08:22:06.698Z,5.00
2019-02-16T08:24:41.502Z,5.10
2019-02-16T08:27:15.409Z,5.20
2019-02-16T08:29:51.122Z,5.30
2019-02-16T08:32:28.500Z,5.30
2019-02-16T08:35:08.120Z,5.40
2019-02-16T08:37:42.722Z,5.50
2019-02-16T08:40:18.413Z,5.50
2019-02-16T08:42:51.957Z,5.60
2019-02-16T08:45:24.716Z,5.60
2019-02-16T08:47:58.439Z,5.80
2019-02-16T08:50:32.300Z,6.00
2019-02-16T08:53:09.089Z,6.10
2019-02-16T08:55:47.186Z,6.20
2019-02-16T08:58:20.328Z,6.30
2019-02-16T09:00:54.425Z,6.40
2019-02-16T09:03:28.112Z,6.40
2019-02-16T09:07:07.175Z,6.70
2019-02-16T09:09:54.781Z,7.30
2019-02-16T09:12:30.540Z,8.70
2019-02-16T09:15:07.523Z,9.60
2019-02-16T09:17:41.426Z,10.40
2019-02-16T09:20:15.237Z,11.20
2019-02-16T09:23:02.919Z,12.00
2019-02-16T09:25:47.435Z,12.70
2019-02-16T09:30:24.210Z,13.80
2019-02-16T09:33:30.838Z,14.30
2019-02-16T09:36:04.450Z,14.80
2019-02-16T09:38:39.954Z,15.20
2019-02-16T09:41:13.482Z,15.70
2019-02-16T09:45:51.755Z,16.10
2019-02-16T09:48:43.309Z,16.20
2019-02-16T09:51:18.052Z,16.60
2019-02-16T09:54:08.145Z,16.80
2019-02-16T09:56:37.017Z,17.40
2019-02-16T09:59:10.416Z,18.00
2019-02-16T10:01:45.961Z,18.30
2019-02-16T10:04:18.738Z,18.80
2019-02-16T10:07:00.687Z,18.80
2019-02-16T10:09:41.088Z,19.00
2019-02-16T10:12:15.132Z,19.40
2019-02-16T10:14:47.719Z,19.20
2019-02-16T10:17:40.631Z,19.50
2019-02-16T10:20:31.224Z,19.00
2019-02-16T10:23:05.298Z,18.70
2019-02-16T10:27:40.549Z,19.00
2019-02-16T10:30:18.445Z,19.50
2019-02-16T10:32:52.024Z,19.70
2019-02-16T10:35:26.646Z,19.60
2019-02-16T10:38:03.213Z,20.20
2019-02-16T10:41:07.252Z,20.20
2019-02-16T10:45:42.425Z,20.00
2019-02-16T10:48:15.493Z,19.40
2019-02-16T10:51:00.019Z,19.00
2019-02-16T10:53:38.974Z,18.90
2019-02-16T10:56:12.567Z,18.90
2019-02-16T10:58:58.764Z,18.60
2019-02-16T11:01:34.368Z,17.60
2019-02-16T11:04:19.133Z,15.90
2019-02-16T11:07:06.723Z,14.30
2019-02-16T11:09:39.440Z,12.80
2019-02-16T11:12:13.100Z,11.90
2019-02-16T11:14:46.549Z,11.40
2019-02-16T11:17:22.128Z,11.30
2019-02-16T11:19:56.002Z,11.00
2019-02-16T11:22:32.552Z,10.90
2019-02-16T11:27:07.934Z,10.90
2019-02-16T11:31:45.225Z,10.90
2019-02-16T11:34:22.724Z,10.90
2019-02-16T11:37:59.641Z,10.80
2019-02-16T11:40:32.431Z,10.70
2019-02-16T11:43:14.177Z,10.60
2019-02-16T11:46:02.852Z,10.60
2019-02-16T11:48:36.447Z,10.50
2019-02-16T11:51:10.252Z,10.50
2019-02-16T11:53:42.921Z,10.50
2019-02-16T11:58:18.291Z,10.50
2019-02-16T12:00:51.983Z,10.40
2019-02-16T12:03:26.562Z,10.30
2019-02-16T12:06:03.643Z,10.20
2019-02-16T12:09:41.643Z,10.20
2019-02-16T12:12:15.208Z,10.20
2019-02-16T12:14:50.787Z,10.20
2019-02-16T12:17:25.311Z,10.10
2019-02-16T12:19:58.068Z,10.10
2019-02-16T12:22:30.711Z,10.20
2019-02-16T12:25:14.451Z,10.20
2019-02-16T12:28:49.371Z,10.20
2019-02-16T12:31:22.101Z,10.20
2019-02-16T12:33:57.449Z,10.20
2019-02-16T12:37:34.682Z,10.20
2019-02-16T12:40:10.234Z,10.20
2019-02-16T12:42:43.939Z,10.20
2019-02-16T12:45:21.333Z,10.30
2019-02-16T12:49:55.059Z,10.20
2019-02-16T12:52:38.546Z,10.30
2019-02-16T12:55:14.927Z,10.40
2019-02-16T12:57:47.041Z,10.40
2019-02-16T13:00:20.775Z,10.50
2019-02-16T13:02:59.306Z,10.60
2019-02-16T13:05:33.261Z,10.60
2019-02-16T13:08:07.042Z,10.60
2019-02-16T13:10:47.732Z,10.60
2019-02-16T13:15:27.892Z,10.50
2019-02-16T13:18:01.883Z,10.40
2019-02-16T13:20:34.469Z,10.30
2019-02-16T13:24:09.890Z,10.30
2019-02-16T13:27:52.122Z,10.20
2019-02-16T13:30:26.740Z,10.20
2019-02-16T13:35:05.837Z,10.30
2019-02-16T13:37:44.424Z,10.20
2019-02-16T13:40:25.005Z,10.10
2019-02-16T13:42:58.678Z,10.10
2019-02-16T13:45:33.242Z,10.10
2019-02-16T13:48:08.955Z,10.20
2019-02-16T13:50:44.546Z,10.20
2019-02-16T13:53:18.615Z,10.10
2019-02-16T13:55:53.124Z,10.10
2019-02-16T13:58:31.958Z,10.00
2019-02-16T14:01:08.679Z,9.90
2019-02-16T14:03:43.311Z,9.80
2019-02-16T14:06:33.991Z,9.80
2019-02-16T14:09:13.652Z,9.70
2019-02-16T14:11:50.258Z,9.60
2019-02-16T14:14:25.827Z,9.60
2019-02-16T14:16:59.433Z,9.50
2019-02-16T14:19:27.889Z,9.40
2019-02-16T14:21:56.218Z,9.40
2019-02-16T14:24:57.937Z,9.30
2019-02-16T14:27:26.276Z,9.40
2019-02-16T14:29:54.739Z,9.40
2019-02-16T14:32:23.256Z,9.30
2019-02-16T14:34:51.669Z,9.30
2019-02-16T14:37:27.225Z,9.30
2019-02-16T14:39:55.870Z,9.20
2019-02-16T14:42:24.194Z,9.20
2019-02-16T14:44:52.899Z,9.10
2019-02-16T14:47:21.380Z,9.00
2019-02-16T14:49:49.783Z,8.90
2019-02-16T14:52:18.337Z,8.80
2019-02-16T14:54:46.915Z,8.70
2019-02-16T14:57:15.534Z,8.60
2019-02-16T14:59:44.078Z,8.60
2019-02-16T15:02:12.438Z,8.50
2019-02-16T15:04:40.823Z,8.30
2019-02-16T15:07:09.299Z,8.30
2019-02-16T15:09:37.736Z,8.20
2019-02-16T15:12:06.805Z,8.10
2019-02-16T15:14:35.575Z,8.10
2019-02-16T15:17:04.125Z,8.00
2019-02-16T15:19:32.565Z,8.00
2019-02-16T15:22:01.094Z,7.90
2019-02-16T15:24:29.536Z,7.90
2019-02-16T15:26:58.317Z,7.80
2019-02-16T15:29:27.380Z,7.70
2019-02-16T15:31:55.763Z,7.70
2019-02-16T15:34:24.131Z,7.70
2019-02-16T15:36:52.834Z,7.70
2019-02-16T15:39:21.177Z,7.60
2019-02-16T15:41:49.715Z,7.60
2019-02-16T15:44:18.244Z,7.70
2019-02-16T15:46:46.664Z,7.60
2019-02-16T15:49:15.021Z,7.70
2019-02-16T15:51:43.535Z,7.80
2019-02-16T15:54:11.956Z,7.70
2019-02-16T15:56:40.293Z,7.70
2019-02-16T15:59:09.591Z,7.50
2019-02-16T16:01:37.082Z,7.40
2019-02-16T16:04:05.434Z,7.30
2019-02-16T16:06:33.944Z,7.20
2019-02-16T16:09:06.798Z,7.20
2019-02-16T16:11:41.449Z,7.30
2019-02-16T16:14:17.933Z,7.20
2019-02-16T16:16:58.746Z,7.20
2019-02-16T16:19:38.306Z,7.10
2019-02-16T16:22:15.069Z,7.10
2019-02-16T16:24:50.563Z,7.10
2019-02-16T16:27:27.208Z,7.10
2019-02-16T16:30:00.927Z,7.00
2019-02-16T16:34:36.507Z,7.00
2019-02-16T16:37:09.025Z,7.00
2019-02-16T16:39:42.731Z,7.00
2019-02-16T16:42:22.329Z,6.90
2019-02-16T16:45:26.367Z,6.90
2019-02-16T16:48:03.924Z,6.90
2019-02-16T16:51:42.247Z,6.90
2019-02-16T16:54:15.966Z,6.90
2019-02-16T16:56:49.836Z,7.00
2019-02-16T16:59:26.438Z,7.00
2019-02-16T17:02:35.488Z,6.90
2019-02-16T17:07:14.671Z,6.90
2019-02-16T17:10:05.328Z,6.90
2019-02-16T17:12:39.031Z,6.80
2019-02-16T17:15:16.326Z,6.80
2019-02-16T17:17:49.899Z,6.80
2019-02-16T17:22:31.361Z,6.80
2019-02-16T17:25:05.277Z,6.70
2019-02-16T17:27:39.537Z,6.80
2019-02-16T17:30:16.827Z,6.80
2019-02-16T17:32:50.682Z,6.80
2019-02-16T17:37:29.105Z,6.70
2019-02-16T17:40:03.800Z,6.70
2019-02-16T17:42:38.292Z,6.70
2019-02-16T17:45:20.496Z,6.70
2019-02-16T17:47:55.920Z,6.70
2019-02-16T17:50:29.780Z,6.70
2019-02-16T17:53:03.474Z,6.70
2019-02-16T17:56:34.513Z,6.70
2019-02-16T17:59:07.947Z,6.70
2019-02-16T18:01:57.474Z,6.60
2019-02-16T18:06:33.328Z,6.60
2019-02-16T18:09:13.806Z,6.60
2019-02-16T18:11:47.323Z,6.60
2019-02-16T18:14:24.470Z,6.50
2019-02-16T18:17:04.003Z,6.50
2019-02-16T18:19:42.677Z,6.40
2019-02-16T18:22:16.091Z,6.40
2019-02-16T18:24:49.885Z,6.40
2019-02-16T18:27:23.561Z,6.30
2019-02-16T18:30:15.545Z,6.30
2019-02-16T18:32:53.006Z,6.30
2019-02-16T18:37:31.300Z,6.30
2019-02-16T18:40:05.950Z,6.20
2019-02-16T18:42:46.215Z,6.20
2019-02-16T18:47:24.655Z,6.20
2019-02-16T18:50:31.793Z,6.20
2019-02-16T18:53:07.946Z,6.20
2019-02-16T18:55:44.609Z,6.10
2019-02-16T18:58:19.243Z,6.10
2019-02-16T19:01:24.726Z,6.10
2019-02-16T19:04:01.678Z,6.10
2019-02-16T19:06:41.373Z,6.00
2019-02-16T19:11:17.910Z,5.90
2019-02-16T19:13:50.543Z,5.90
2019-02-16T19:18:25.967Z,5.80
2019-02-16T19:21:04.549Z,5.70
2019-02-16T19:23:38.370Z,5.60
2019-02-16T19:26:12.017Z,5.50
2019-02-16T19:28:47.620Z,5.50
2019-02-16T19:31:21.281Z,5.40
2019-02-16T19:34:59.563Z,5.40
2019-02-16T19:37:32.151Z,5.40
2019-02-16T19:40:10.042Z,5.30
2019-02-16T19:42:57.677Z,5.30
2019-02-16T19:45:50.271Z,5.20
2019-02-16T19:50:31.454Z,5.10
2019-02-16T19:53:05.951Z,5.10
2019-02-16T19:55:39.736Z,5.00
2019-02-16T19:58:14.455Z,5.00
2019-02-16T20:00:59.051Z,5.00
2019-02-16T20:03:37.770Z,4.90
2019-02-16T20:06:14.264Z,4.80
2019-02-16T20:08:48.011Z,4.80
2019-02-16T20:11:55.696Z,4.80
2019-02-16T20:14:29.356Z,4.80
2019-02-16T20:17:03.818Z,4.80
2019-02-16T20:19:45.759Z,4.70
2019-02-16T20:22:19.308Z,4.70
2019-02-16T20:25:26.401Z,4.70
2019-02-16T20:28:00.938Z,4.60
2019-02-16T20:30:33.856Z,4.50
2019-02-16T20:33:07.620Z,4.50
2019-02-16T20:35:48.180Z,4.50
2019-02-16T20:38:35.797Z,4.40
2019-02-16T20:41:41.979Z,4.40
2019-02-16T20:44:14.674Z,4.30
2019-02-16T20:46:51.922Z,4.30
2019-02-16T20:49:31.536Z,4.20
2019-02-16T20:52:05.580Z,4.20
2019-02-16T20:54:49.156Z,4.20
2019-02-16T20:57:22.323Z,4.20
2019-02-16T21:00:00.854Z,4.20
2019-02-16T21:02:33.682Z,4.20
2019-02-16T21:05:14.330Z,4.20
2019-02-16T21:07:49.950Z,4.20
2019-02-16T21:10:24.455Z,4.20
2019-02-16T21:12:59.529Z,4.10
2019-02-16T21:15:47.457Z,4.10
2019-02-16T21:19:18.108Z,4.00
2019-02-16T21:21:59.773Z,4.10
2019-02-16T21:24:38.326Z,4.10
2019-02-16T21:27:11.282Z,4.10
2019-02-16T21:29:49.702Z,4.00
2019-02-16T21:32:23.266Z,4.00
2019-02-16T21:34:57.114Z,4.00
2019-02-16T21:37:30.599Z,4.00
2019-02-16T21:40:05.416Z,4.00
2019-02-16T21:42:38.029Z,3.90
2019-02-16T21:45:14.561Z,3.90
2019-02-16T21:47:48.684Z,4.00
2019-02-16T21:50:27.261Z,3.90
2019-02-16T21:53:03.749Z,4.00
2019-02-16T21:57:43.042Z,4.00
2019-02-16T22:00:21.795Z,4.00
2019-02-16T22:02:55.095Z,4.10
2019-02-16T22:05:34.888Z,4.00
2019-02-16T22:08:08.531Z,4.00
2019-02-16T22:10:42.080Z,3.90
2019-02-16T22:13:10.391Z,3.90
2019-02-16T22:15:38.767Z,3.90
2019-02-16T22:18:07.611Z,3.90
2019-02-16T22:20:35.963Z,3.80
2019-02-16T22:23:04.365Z,3.90
2019-02-16T22:25:32.869Z,3.90
2019-02-16T22:28:01.223Z,3.90
2019-02-16T22:30:29.585Z,3.90
2019-02-16T22:32:58.140Z,4.00
2019-02-16T22:35:26.455Z,4.00
2019-02-16T22:37:54.748Z,4.00
2019-02-16T22:40:23.617Z,4.10
2019-02-16T22:42:51.976Z,4.00
2019-02-16T22:45:20.298Z,4.00
2019-02-16T22:47:49.060Z,4.00
2019-02-16T22:50:17.387Z,4.00
2019-02-16T22:52:45.758Z,3.90
2019-02-16T22:55:14.190Z,3.80
2019-02-16T22:57:42.480Z,3.80
2019-02-16T23:00:13.913Z,3.70
2019-02-16T23:02:42.580Z,3.70
2019-02-16T23:05:11.010Z,3.70
2019-02-16T23:07:39.460Z,3.70
2019-02-16T23:10:09.066Z,3.60
2019-02-16T23:12:37.436Z,3.60
2019-02-16T23:15:06.216Z,3.50
2019-02-16T23:17:34.973Z,3.50
2019-02-16T23:20:03.557Z,3.40
2019-02-16T23:22:31.980Z,3.20
2019-02-16T23:25:00.408Z,3.10
2019-02-16T23:27:28.710Z,3.00
2019-02-16T23:29:57.136Z,3.00
2019-02-16T23:32:25.591Z,2.90
2019-02-16T23:34:53.990Z,2.90
2019-02-16T23:37:22.362Z,2.80
2019-02-16T23:39:50.988Z,2.80
2019-02-16T23:42:19.342Z,2.70
2019-02-16T23:44:47.639Z,2.60
2019-02-16T23:47:16.111Z,2.50
2019-02-16T23:49:44.418Z,2.50
2019-02-16T23:52:12.744Z,2.50
2019-02-16T23:54:41.702Z,2.40
2019-02-16T23:57:10.071Z,2.50
2019-02-16T23:59:38.423Z,2.50
